Time;durP1;ratioP1;P1;durP2;ratioP2;P2;SDS_P1;SDS_P2;PMS_P1;PMS_P2;Temp;Humidity;BMP_temperature;BMP_pressure;BME280_temperature;BME280_humidity;BME280_pressure;Samples;Min_cycle;Max_cycle;Signal;HPM_P1;HPM_P2
2023/04/27 00:00:43;;;;;;;;;;;3.10;99.90;;;;;;5115122;28;20324;-75
2023/04/27 00:03:09;;;;;;;;;;;3.10;99.90;;;;;;5095594;28;19938;-74
2023/04/27 00:05:35;;;;;;;;;;;3.10;99.90;;;;;;5114640;28;19924;-74
2023/04/27 00:08:01;;;;;;;;;;;3.10;99.90;;;;;;5115157;28;19923;-75
2023/04/27 00:10:27;;;;;;;;;;;3.10;99.90;;;;;;5113873;28;19930;-75
2023/04/27 00:12:52;;;;;;;;;;;3.10;99.90;;;;;;5114760;28;20470;-74
2023/04/27 00:15:18;;;;;;;;;;;3.00;99.90;;;;;;5096513;28;19996;-75
2023/04/27 00:17:44;;;;;;;;;;;3.40;99.90;;;;;;5095699;28;19938;-73
2023/04/27 00:20:11;;;;;;;;;;;3.00;99.90;;;;;;5114547;28;20006;-75
2023/04/27 00:22:40;;;;;;;;;;;2.90;99.90;;;;;;5114947;28;19930;-73
2023/04/27 00:25:06;;;;;;;;;;;3.00;99.90;;;;;;5113539;28;19924;-74
2023/04/27 00:27:31;;;;;;;;;;;2.90;99.90;;;;;;5095421;28;19930;-74
2023/04/27 00:29:57;;;;;;;;;;;2.90;99.90;;;;;;5096202;28;19931;-75
2023/04/27 00:32:22;;;;;;;;;;;3.00;99.90;;;;;;5095502;28;19935;-75
2023/04/27 00:34:48;;;;;;;;;;;2.90;99.90;;;;;;5095800;28;19920;-74
2023/04/27 00:37:13;;;;;;;;;;;2.90;99.90;;;;;;5094839;28;19924;-74
2023/04/27 00:39:39;;;;;;;;;;;3.00;99.90;;;;;;5096097;28;19986;-75
2023/04/27 00:42:05;;;;;;;;;;;3.20;99.90;;;;;;5113926;28;19927;-74
2023/04/27 00:44:30;;;;;;;;;;;2.90;99.90;;;;;;5113300;28;20020;-75
2023/04/27 00:46:57;;;;;;;;;;;2.90;99.90;;;;;;5095529;28;20076;-74
2023/04/27 00:49:22;;;;;;;;;;;2.90;99.90;;;;;;5114308;28;20027;-74
2023/04/27 00:51:48;;;;;;;;;;;3.60;99.90;;;;;;5095442;28;20296;-75
2023/04/27 00:54:18;;;;;;;;;;;2.90;99.90;;;;;;5095369;28;19935;-74
2023/04/27 00:56:44;;;;;;;;;;;2.90;99.90;;;;;;5113927;28;20015;-74
2023/04/27 00:59:09;;;;;;;;;;;2.90;99.90;;;;;;5094164;28;20007;-74
2023/04/27 01:01:35;;;;;;;;;;;2.90;99.90;;;;;;5095803;28;19924;-76
2023/04/27 01:04:00;;;;;;;;;;;2.90;99.90;;;;;;5113470;28;19931;-75
2023/04/27 01:06:28;;;;;;;;;;;2.80;99.90;;;;;;5112788;28;20264;-75
2023/04/27 01:08:54;;;;;;;;;;;2.80;99.90;;;;;;5095593;28;19924;-75
2023/04/27 01:11:20;;;;;;;;;;;2.80;99.90;;;;;;5113729;28;19973;-74
2023/04/27 01:13:46;;;;;;;;;;;2.80;99.90;;;;;;5113054;28;19930;-75
2023/04/27 01:16:14;;;;;;;;;;;2.80;99.90;;;;;;5113443;28;19924;-75
2023/04/27 01:18:43;;;;;;;;;;;2.80;99.90;;;;;;5095589;28;19924;-74
2023/04/27 01:21:08;;;;;;;;;;;2.90;99.90;;;;;;5094353;28;20275;-74
2023/04/27 01:23:34;;;;;;;;;;;3.00;99.90;;;;;;5113527;28;19931;-75
2023/04/27 01:26:00;;;;;;;;;;;3.00;99.90;;;;;;5113259;28;19939;-75
2023/04/27 01:28:25;;;;;;;;;;;3.10;99.90;;;;;;5112846;28;19928;-76
2023/04/27 01:30:51;;;;;;;;;;;3.10;99.90;;;;;;5095010;28;19924;-75
2023/04/27 01:33:16;;;;;;;;;;;3.10;99.90;;;;;;5095373;28;20303;-75
2023/04/27 01:35:42;;;;;;;;;;;3.20;99.90;;;;;;5094366;28;19924;-75
2023/04/27 01:38:07;;;;;;;;;;;3.20;99.90;;;;;;5112973;28;20310;-75
2023/04/27 01:40:33;;;;;;;;;;;3.20;99.90;;;;;;5112974;28;19930;-75
2023/04/27 01:42:58;;;;;;;;;;;3.70;99.90;;;;;;5112882;28;20268;-74
2023/04/27 01:45:24;;;;;;;;;;;3.30;99.90;;;;;;5112384;28;19924;-76
2023/04/27 01:47:51;;;;;;;;;;;3.30;99.90;;;;;;5093819;28;19927;-76
2023/04/27 01:50:16;;;;;;;;;;;3.30;99.90;;;;;;5095095;28;19923;-74
2023/04/27 01:52:42;;;;;;;;;;;3.30;99.90;;;;;;5095077;28;19957;-75
2023/04/27 01:55:08;;;;;;;;;;;3.40;99.90;;;;;;5094260;28;19924;-75
2023/04/27 01:57:33;;;;;;;;;;;3.30;99.90;;;;;;5094292;28;19931;-75
2023/04/27 01:59:59;;;;;;;;;;;3.40;99.90;;;;;;5113251;28;19978;-75
2023/04/27 02:02:24;;;;;;;;;;;3.50;99.90;;;;;;5111931;28;20011;-75
2023/04/27 02:04:50;;;;;;;;;;;3.50;99.90;;;;;;5113391;28;19975;-76
2023/04/27 02:07:15;;;;;;;;;;;3.50;99.90;;;;;;5112713;28;19977;-76
2023/04/27 02:09:41;;;;;;;;;;;3.60;99.90;;;;;;5112316;28;19955;-76
2023/04/27 02:12:06;;;;;;;;;;;3.60;99.90;;;;;;5112693;28;20387;-75
2023/04/27 02:14:32;;;;;;;;;;;3.60;99.90;;;;;;5094792;28;19924;-75
2023/04/27 02:16:58;;;;;;;;;;;3.70;99.90;;;;;;5093519;28;19924;-76
2023/04/27 02:19:23;;;;;;;;;;;3.70;99.90;;;;;;5094591;28;20396;-75
2023/04/27 02:21:49;;;;;;;;;;;3.70;99.90;;;;;;5112905;28;20392;-75
2023/04/27 02:24:15;;;;;;;;;;;3.80;99.90;;;;;;5111890;28;19923;-75
2023/04/27 02:26:40;;;;;;;;;;;3.80;99.90;;;;;;5094401;28;19924;-76
2023/04/27 02:29:06;;;;;;;;;;;3.80;99.90;;;;;;5112859;28;19924;-76
2023/04/27 02:31:31;;;;;;;;;;;3.80;99.90;;;;;;5093885;28;19923;-76
2023/04/27 02:33:57;;;;;;;;;;;3.90;99.90;;;;;;5112643;28;19924;-76
2023/04/27 02:36:22;;;;;;;;;;;3.90;99.90;;;;;;5095394;28;20263;-75
2023/04/27 02:38:48;;;;;;;;;;;3.90;99.90;;;;;;5094115;28;19924;-76
2023/04/27 02:41:13;;;;;;;;;;;3.90;99.90;;;;;;5112216;28;19931;-75
2023/04/27 02:43:39;;;;;;;;;;;3.90;99.90;;;;;;5112752;28;19927;-75
2023/04/27 02:46:04;;;;;;;;;;;4.00;99.90;;;;;;5111942;28;19931;-76
2023/04/27 02:48:30;;;;;;;;;;;4.00;99.90;;;;;;5112880;28;19924;-75
2023/04/27 02:50:56;;;;;;;;;;;4.00;99.90;;;;;;5095238;28;20347;-75
2023/04/27 02:53:22;;;;;;;;;;;4.10;99.90;;;;;;5097986;28;19931;-75
2023/04/27 02:55:47;;;;;;;;;;;4.00;99.90;;;;;;5116385;28;19924;-75
2023/04/27 02:58:13;;;;;;;;;;;4.20;99.90;;;;;;5115042;28;19924;-76
2023/04/27 03:00:40;;;;;;;;;;;3.90;99.90;;;;;;5097479;28;20018;-75
2023/04/27 03:03:06;;;;;;;;;;;3.90;99.90;;;;;;5098070;28;20287;-76
2023/04/27 03:05:32;;;;;;;;;;;3.90;99.90;;;;;;5115550;28;19969;-76
2023/04/27 03:07:57;;;;;;;;;;;3.90;99.90;;;;;;5097520;28;19923;-76
2023/04/27 03:10:23;;;;;;;;;;;4.40;99.90;;;;;;5097451;28;20014;-76
2023/04/27 03:12:48;;;;;;;;;;;3.80;99.90;;;;;;5097097;28;20030;-75
2023/04/27 03:15:14;;;;;;;;;;;3.80;99.90;;;;;;5097345;28;19957;-75
2023/04/27 03:17:39;;;;;;;;;;;3.80;99.90;;;;;;5098060;28;20357;-76
2023/04/27 03:20:09;;;;;;;;;;;3.70;99.90;;;;;;5096635;28;19969;-75
2023/04/27 03:22:35;;;;;;;;;;;3.70;99.90;;;;;;5097703;28;19924;-75
2023/04/27 03:25:01;;;;;;;;;;;3.60;99.90;;;;;;5097210;28;20295;-75
2023/04/27 03:27:26;;;;;;;;;;;3.50;99.90;;;;;;5096614;28;19931;-75
2023/04/27 03:29:52;;;;;;;;;;;3.50;99.90;;;;;;5115736;28;19927;-75
2023/04/27 03:32:18;;;;;;;;;;;3.40;99.90;;;;;;5115638;28;19923;-75
2023/04/27 03:34:44;;;;;;;;;;;3.30;99.90;;;;;;5115133;28;19930;-74
2023/04/27 03:37:09;;;;;;;;;;;3.30;99.90;;;;;;5097433;28;20395;-75
2023/04/27 03:39:35;;;;;;;;;;;3.20;99.90;;;;;;5115246;28;19957;-75
2023/04/27 03:42:01;;;;;;;;;;;3.10;99.90;;;;;;5094350;28;19924;-74
2023/04/27 03:44:27;;;;;;;;;;;3.10;99.90;;;;;;5111179;28;19931;-75
2023/04/27 03:46:52;;;;;;;;;;;3.00;99.90;;;;;;5094712;28;20023;-75
2023/04/27 03:49:18;;;;;;;;;;;3.00;99.90;;;;;;5094334;28;19925;-76
2023/04/27 03:51:43;;;;;;;;;;;2.90;99.90;;;;;;5112824;28;19975;-75
2023/04/27 03:54:09;;;;;;;;;;;3.30;99.90;;;;;;5113939;28;20002;-76
2023/04/27 03:56:35;;;;;;;;;;;2.80;99.90;;;;;;5097251;28;20553;-75
2023/04/27 03:59:02;;;;;;;;;;;2.70;99.90;;;;;;5114552;28;19980;-76
2023/04/27 04:01:27;;;;;;;;;;;2.70;99.90;;;;;;5113008;28;20015;-77
2023/04/27 04:03:53;;;;;;;;;;;2.60;99.90;;;;;;5114888;28;19993;-75
2023/04/27 04:06:18;;;;;;;;;;;2.60;99.90;;;;;;5096846;28;19974;-77
2023/04/27 04:08:44;;;;;;;;;;;2.60;99.90;;;;;;5095796;28;20402;-75
2023/04/27 04:11:09;;;;;;;;;;;2.50;99.90;;;;;;5096071;28;20365;-75
2023/04/27 04:13:35;;;;;;;;;;;2.50;99.90;;;;;;5096478;28;19924;-75
2023/04/27 04:16:05;;;;;;;;;;;2.40;99.90;;;;;;5113511;28;19924;-75
2023/04/27 04:18:30;;;;;;;;;;;2.40;99.90;;;;;;5114773;28;19946;-75
2023/04/27 04:20:56;;;;;;;;;;;2.40;99.90;;;;;;5096181;28;20298;-75
2023/04/27 04:23:21;;;;;;;;;;;2.30;99.90;;;;;;5113028;28;19923;-76
2023/04/27 04:25:47;;;;;;;;;;;2.40;99.90;;;;;;5096179;28;19920;-76
2023/04/27 04:28:13;;;;;;;;;;;2.30;99.90;;;;;;5114549;28;19924;-76
2023/04/27 04:30:39;;;;;;;;;;;2.30;99.90;;;;;;5095835;28;20264;-76
2023/04/27 04:33:04;;;;;;;;;;;2.30;99.90;;;;;;5096218;28;20385;-76
2023/04/27 04:35:31;;;;;;;;;;;2.90;99.90;;;;;;5096235;28;19963;-76
2023/04/27 04:37:57;;;;;;;;;;;2.30;99.90;;;;;;5113510;28;19923;-76
2023/04/27 04:40:23;;;;;;;;;;;2.30;99.90;;;;;;5114427;28;20000;-76
2023/04/27 04:42:49;;;;;;;;;;;2.20;99.90;;;;;;5096043;28;20290;-76
2023/04/27 04:45:14;;;;;;;;;;;2.30;99.90;;;;;;5112630;28;19938;-76
2023/04/27 04:47:40;;;;;;;;;;;2.30;99.90;;;;;;5113994;28;19970;-75
2023/04/27 04:50:06;;;;;;;;;;;2.50;99.90;;;;;;5113602;28;19968;-76
2023/04/27 04:52:31;;;;;;;;;;;2.30;99.90;;;;;;5094892;28;20428;-76
2023/04/27 04:54:57;;;;;;;;;;;2.30;99.90;;;;;;5113556;28;19924;-75
2023/04/27 04:57:22;;;;;;;;;;;2.80;99.90;;;;;;5094757;28;20371;-77
2023/04/27 04:59:48;;;;;;;;;;;2.30;99.90;;;;;;5095574;28;20009;-75
2023/04/27 05:02:13;;;;;;;;;;;2.70;99.90;;;;;;5113702;28;20061;-76
2023/04/27 05:04:39;;;;;;;;;;;2.40;99.90;;;;;;5113180;28;20014;-75
2023/04/27 05:07:05;;;;;;;;;;;2.40;99.90;;;;;;5094830;28;19930;-75
2023/04/27 05:09:31;;;;;;;;;;;2.40;99.90;;;;;;5095465;28;20018;-76
2023/04/27 05:11:56;;;;;;;;;;;2.40;99.90;;;;;;5094410;28;20019;-76
2023/04/27 05:14:22;;;;;;;;;;;2.50;99.90;;;;;;5113168;28;19975;-75
2023/04/27 05:16:48;;;;;;;;;;;2.50;99.90;;;;;;5113092;28;20010;-76
2023/04/27 05:19:17;;;;;;;;;;;2.60;99.90;;;;;;5112023;28;19923;-75
2023/04/27 05:21:45;;;;;;;;;;;2.60;99.90;;;;;;5095063;28;19936;-75
2023/04/27 05:24:14;;;;;;;;;;;2.70;99.90;;;;;;5094895;28;20002;-74
2023/04/27 05:26:41;;;;;;;;;;;2.80;99.90;;;;;;5094067;28;20332;-76
2023/04/27 05:29:06;;;;;;;;;;;2.90;99.90;;;;;;5112968;28;19977;-75
2023/04/27 05:31:32;;;;;;;;;;;2.90;99.90;;;;;;5113396;28;19923;-75
2023/04/27 05:33:57;;;;;;;;;;;2.90;99.90;;;;;;5094284;28;20382;-76
2023/04/27 05:36:23;;;;;;;;;;;3.00;99.90;;;;;;5113078;28;20271;-73
2023/04/27 05:38:48;;;;;;;;;;;3.10;99.90;;;;;;5094389;28;19931;-73
2023/04/27 05:41:14;;;;;;;;;;;3.20;99.90;;;;;;5094046;28;19953;-73
2023/04/27 05:43:42;;;;;;;;;;;3.20;99.90;;;;;;5112654;28;20355;-77
2023/04/27 05:46:11;;;;;;;;;;;3.30;99.90;;;;;;5094984;28;19931;-81
2023/04/27 05:48:40;;;;;;;;;;;3.50;99.90;;;;;;5111681;28;19924;-78
2023/04/27 05:51:06;;;;;;;;;;;3.50;99.90;;;;;;5108656;28;20295;-78
2023/04/27 05:53:32;;;;;;;;;;;3.50;99.90;;;;;;5094468;28;19931;-78
2023/04/27 05:55:59;;;;;;;;;;;3.60;99.90;;;;;;5093796;28;19920;-83
2023/04/27 05:58:25;;;;;;;;;;;3.70;99.90;;;;;;5113116;28;19931;-76
2023/04/27 06:00:51;;;;;;;;;;;3.80;99.90;;;;;;5093669;28;19924;-86
2023/04/27 06:03:17;;;;;;;;;;;3.90;99.90;;;;;;5094858;28;19930;-80
2023/04/27 06:05:42;;;;;;;;;;;4.10;99.90;;;;;;5094978;28;19963;-78
2023/04/27 06:08:08;;;;;;;;;;;4.10;99.90;;;;;;5111886;28;19977;-75
2023/04/27 06:10:34;;;;;;;;;;;4.20;99.90;;;;;;5113366;28;19929;-79
2023/04/27 06:12:59;;;;;;;;;;;4.30;99.90;;;;;;5112688;28;19924;-77
2023/04/27 06:15:25;;;;;;;;;;;4.40;99.90;;;;;;5094337;28;20271;-80
2023/04/27 06:17:50;;;;;;;;;;;3.50;99.90;;;;;;5094550;28;19924;-83
2023/04/27 06:20:16;;;;;;;;;;;4.70;99.90;;;;;;5089611;28;19928;-80
2023/04/27 06:22:42;;;;;;;;;;;4.80;99.90;;;;;;5092385;28;20031;-79
2023/04/27 06:25:10;;;;;;;;;;;5.60;99.90;;;;;;5094541;28;19938;-80
2023/04/27 06:27:36;;;;;;;;;;;5.50;99.90;;;;;;5097828;28;19936;-78
2023/04/27 06:30:02;;;;;;;;;;;5.20;99.90;;;;;;5097581;28;19982;-78
2023/04/27 06:32:27;;;;;;;;;;;5.40;99.90;;;;;;5116182;28;19932;-76
2023/04/27 06:34:53;;;;;;;;;;;5.50;99.90;;;;;;5098130;28;19931;-77
2023/04/27 06:37:18;;;;;;;;;;;5.70;99.90;;;;;;5097281;28;19931;-75
2023/04/27 06:39:44;;;;;;;;;;;6.50;99.90;;;;;;5116098;28;19928;-77
2023/04/27 06:42:10;;;;;;;;;;;6.00;99.90;;;;;;5097521;28;19927;-77
2023/04/27 06:44:35;;;;;;;;;;;6.00;99.90;;;;;;5115092;28;19924;-77
2023/04/27 06:47:01;;;;;;;;;;;6.20;99.90;;;;;;5097611;28;19924;-76
2023/04/27 06:49:26;;;;;;;;;;;6.80;99.90;;;;;;5115967;28;19970;-76
2023/04/27 06:51:52;;;;;;;;;;;7.10;99.90;;;;;;5096727;28;20286;-76
2023/04/27 06:54:18;;;;;;;;;;;6.70;99.90;;;;;;5097449;28;19975;-76
2023/04/27 06:56:43;;;;;;;;;;;6.80;99.90;;;;;;5115878;28;20367;-76
2023/04/27 06:59:09;;;;;;;;;;;7.00;99.90;;;;;;5113968;28;20102;-76
2023/04/27 07:01:35;;;;;;;;;;;6.90;99.90;;;;;;5097720;28;19935;-75
2023/04/27 07:04:01;;;;;;;;;;;6.90;99.90;;;;;;5114632;28;19960;-75
2023/04/27 07:06:27;;;;;;;;;;;7.00;99.90;;;;;;5115056;28;20402;-75
2023/04/27 07:08:53;;;;;;;;;;;7.00;99.90;;;;;;5096959;28;20034;-75
2023/04/27 07:11:18;;;;;;;;;;;7.30;99.90;;;;;;5114762;28;19930;-76
2023/04/27 07:13:44;;;;;;;;;;;7.30;99.90;;;;;;5115717;28;19931;-75
2023/04/27 07:16:10;;;;;;;;;;;7.40;99.90;;;;;;5097178;28;20317;-75
2023/04/27 07:18:35;;;;;;;;;;;7.40;99.90;;;;;;5114570;28;19934;-77
2023/04/27 07:21:01;;;;;;;;;;;7.70;99.90;;;;;;5114474;27;19928;-75
2023/04/27 07:23:26;;;;;;;;;;;7.70;99.90;;;;;;5077065;28;19924;-76
2023/04/27 07:25:52;;;;;;;;;;;7.80;99.90;;;;;;5092120;28;20382;-75
2023/04/27 07:28:18;;;;;;;;;;;8.00;99.90;;;;;;5114651;28;19967;-75
2023/04/27 07:30:44;;;;;;;;;;;8.20;99.90;;;;;;5111354;27;19971;-75
2023/04/27 07:33:10;;;;;;;;;;;8.40;99.90;;;;;;5094892;28;19932;-74
2023/04/27 07:35:36;;;;;;;;;;;8.80;99.90;;;;;;5110984;27;19931;-74
2023/04/27 07:38:02;;;;;;;;;;;9.60;99.90;;;;;;5082231;28;19967;-71
2023/04/27 07:40:27;;;;;;;;;;;10.50;99.90;;;;;;5094331;27;20004;-78
2023/04/27 07:42:54;;;;;;;;;;;11.40;99.90;;;;;;5097391;28;19924;-76
2023/04/27 07:45:20;;;;;;;;;;;12.00;99.90;;;;;;5114744;28;19923;-75
2023/04/27 07:47:46;;;;;;;;;;;12.30;99.90;;;;;;5095938;28;19923;-77
2023/04/27 07:50:13;;;;;;;;;;;12.60;99.90;;;;;;5114510;28;20014;-76
2023/04/27 07:52:38;;;;;;;;;;;13.00;99.90;;;;;;5115242;28;19924;-77
2023/04/27 07:55:05;;;;;;;;;;;13.40;98.10;;;;;;5114086;28;20406;-74
2023/04/27 07:57:30;;;;;;;;;;;14.30;98.20;;;;;;5096722;28;20300;-76
2023/04/27 07:59:56;;;;;;;;;;;14.50;96.40;;;;;;5114913;28;19923;-79
2023/04/27 08:02:21;;;;;;;;;;;14.70;95.20;;;;;;5096163;28;20390;-75
2023/04/27 08:04:48;;;;;;;;;;;14.80;93.70;;;;;;5114976;28;20402;-77
2023/04/27 08:07:17;;;;;;;;;;;15.20;93.20;;;;;;5113876;28;19924;-77
2023/04/27 08:09:42;;;;;;;;;;;15.40;92.20;;;;;;5096279;28;19975;-71
2023/04/27 08:12:08;;;;;;;;;;;15.80;91.80;;;;;;5114316;28;20022;-75
2023/04/27 08:14:34;;;;;;;;;;;15.80;92.50;;;;;;5113631;28;20161;-73
2023/04/27 08:17:00;;;;;;;;;;;15.90;92.80;;;;;;5095036;28;20015;-79
2023/04/27 08:19:25;;;;;;;;;;;16.40;91.30;;;;;;5093884;28;20038;-77
2023/04/27 08:21:51;;;;;;;;;;;16.30;90.60;;;;;;5111843;28;19928;-72
2023/04/27 08:24:16;;;;;;;;;;;16.40;89.70;;;;;;5112826;28;19927;-74
2023/04/27 08:26:42;;;;;;;;;;;16.20;90.40;;;;;;5094818;28;20542;-74
2023/04/27 08:29:07;;;;;;;;;;;16.20;90.10;;;;;;5093223;28;20046;-72
2023/04/27 08:31:33;;;;;;;;;;;16.30;89.10;;;;;;5113622;28;19923;-73
2023/04/27 08:33:58;;;;;;;;;;;17.20;89.40;;;;;;5114267;28;20010;-73
2023/04/27 08:36:25;;;;;;;;;;;17.40;87.00;;;;;;5094741;28;20007;-71
2023/04/27 08:38:50;;;;;;;;;;;17.20;88.00;;;;;;5094211;28;19963;-71
2023/04/27 08:41:23;;;;;;;;;;;17.00;87.60;;;;;;5096008;28;19974;-72
2023/04/27 08:43:50;;;;;;;;;;;17.20;87.60;;;;;;5095063;28;20391;-70
2023/04/27 08:46:22;;;;;;;;;;;17.20;88.30;;;;;;5114663;28;19981;-72
2023/04/27 08:48:51;;;;;;;;;;;17.20;88.00;;;;;;5094645;28;19923;-71
2023/04/27 08:51:20;;;;;;;;;;;17.70;86.80;;;;;;5112633;28;19924;-72
2023/04/27 08:53:50;;;;;;;;;;;17.80;83.10;;;;;;5094272;28;19924;-71
2023/04/27 08:56:16;;;;;;;;;;;17.40;85.00;;;;;;5094383;28;19980;-71
2023/04/27 08:58:42;;;;;;;;;;;17.20;86.20;;;;;;5109219;28;19970;-71
2023/04/27 09:01:10;;;;;;;;;;;17.50;85.80;;;;;;5093728;28;19924;-71
2023/04/27 09:03:38;;;;;;;;;;;17.60;85.20;;;;;;5110551;28;20284;-71
2023/04/27 09:06:04;;;;;;;;;;;17.60;81.90;;;;;;5093574;28;20383;-71
2023/04/27 09:08:48;;;;;;;;;;;17.40;86.30;;;;;;5114348;28;20320;-71
2023/04/27 09:11:14;;;;;;;;;;;17.60;85.30;;;;;;5093838;28;19924;-71
2023/04/27 09:13:41;;;;;;;;;;;17.70;81.80;;;;;;5095425;28;19975;-71
2023/04/27 09:16:07;;;;;;;;;;;17.50;83.20;;;;;;5095353;28;19931;-71
2023/04/27 09:18:36;;;;;;;;;;;17.70;81.90;;;;;;5094916;28;19924;-71
2023/04/27 09:21:03;;;;;;;;;;;17.60;80.60;;;;;;5113570;28;20298;-71
2023/04/27 09:23:31;;;;;;;;;;;17.80;82.00;;;;;;5113807;28;19923;-71
2023/04/27 09:25:57;;;;;;;;;;;17.20;82.40;;;;;;5094730;28;19925;-71
2023/04/27 09:28:27;;;;;;;;;;;17.40;82.30;;;;;;5113548;28;20320;-72
2023/04/27 09:30:56;;;;;;;;;;;17.40;83.60;;;;;;5095309;28;19924;-72
2023/04/27 09:33:29;;;;;;;;;;;17.70;83.40;;;;;;5094698;28;19934;-71
2023/04/27 09:35:56;;;;;;;;;;;18.10;80.30;;;;;;5113183;28;20395;-71
2023/04/27 09:38:22;;;;;;;;;;;18.20;81.50;;;;;;5113283;28;19955;-71
2023/04/27 09:40:48;;;;;;;;;;;18.50;81.60;;;;;;5112665;28;20444;-71
2023/04/27 09:43:14;;;;;;;;;;;18.70;78.20;;;;;;5095252;28;20028;-71
2023/04/27 09:45:40;;;;;;;;;;;18.50;79.00;;;;;;5113552;28;19943;-71
2023/04/27 09:48:06;;;;;;;;;;;18.80;80.00;;;;;;5112920;28;19923;-71
2023/04/27 09:50:35;;;;;;;;;;;18.60;79.50;;;;;;5095049;28;19930;-71
2023/04/27 09:53:01;;;;;;;;;;;19.20;78.00;;;;;;5107501;28;19928;-70
2023/04/27 09:55:29;;;;;;;;;;;19.40;77.10;;;;;;5094590;28;19927;-71
2023/04/27 09:57:58;;;;;;;;;;;19.40;75.30;;;;;;5112109;28;20120;-71
2023/04/27 10:00:30;;;;;;;;;;;19.30;77.10;;;;;;5076909;28;19928;-71
2023/04/27 10:03:06;;;;;;;;;;;19.20;76.30;;;;;;5108776;28;19924;-71
2023/04/27 10:05:34;;;;;;;;;;;18.80;75.90;;;;;;5098760;28;19930;-72
2023/04/27 10:08:02;;;;;;;;;;;18.60;74.40;;;;;;5098318;28;20018;-71
2023/04/27 10:10:33;;;;;;;;;;;18.50;75.90;;;;;;5117346;28;19928;-72
2023/04/27 10:13:02;;;;;;;;;;;18.30;77.40;;;;;;5117381;28;19924;-71
2023/04/27 10:15:28;;;;;;;;;;;17.90;77.30;;;;;;5097600;28;19924;-71
2023/04/27 10:17:57;;;;;;;;;;;17.90;77.40;;;;;;5098930;28;19930;-72
2023/04/27 10:20:39;;;;;;;;;;;17.50;79.20;;;;;;5116905;28;20426;-72
2023/04/27 10:23:05;;;;;;;;;;;17.30;78.00;;;;;;5116257;28;20294;-70
2023/04/27 10:25:37;;;;;;;;;;;16.80;79.70;;;;;;5099043;28;19980;-72
2023/04/27 10:28:03;;;;;;;;;;;16.30;78.80;;;;;;5095618;28;19975;-73
2023/04/27 10:30:38;;;;;;;;;;;16.50;81.20;;;;;;5098583;28;19967;-73
2023/04/27 10:33:08;;;;;;;;;;;16.80;78.60;;;;;;5113306;28;19923;-72
2023/04/27 10:35:33;;;;;;;;;;;16.80;77.70;;;;;;5097550;28;19923;-72
2023/04/27 10:38:06;;;;;;;;;;;16.50;82.40;;;;;;5116100;28;19924;-73
2023/04/27 10:40:32;;;;;;;;;;;16.50;81.40;;;;;;5097710;28;19924;-72
2023/04/27 10:43:26;;;;;;;;;;;16.50;79.50;;;;;;5115210;28;19927;-72
2023/04/27 10:46:06;;;;;;;;;;;16.30;81.10;;;;;;5076332;28;19967;-71
2023/04/27 10:48:31;;;;;;;;;;;16.40;81.20;;;;;;5098106;28;19978;-72
2023/04/27 10:50:57;;;;;;;;;;;16.60;86.20;;;;;;5114759;28;19967;-74
2023/04/27 10:53:22;;;;;;;;;;;17.00;82.10;;;;;;5116806;28;19970;-72
2023/04/27 10:55:53;;;;;;;;;;;17.50;81.50;;;;;;5116719;28;20432;-72
2023/04/27 10:58:22;;;;;;;;;;;17.40;78.00;;;;;;5093874;28;19928;-71
2023/04/27 11:00:47;;;;;;;;;;;16.90;81.20;;;;;;5095821;28;19969;-71
2023/04/27 11:03:18;;;;;;;;;;;16.30;81.70;;;;;;5093730;28;19927;-74
2023/04/27 11:05:44;;;;;;;;;;;16.00;82.40;;;;;;5095810;28;19924;-76
2023/04/27 11:08:20;;;;;;;;;;;15.70;82.10;;;;;;5094607;28;20082;-74
2023/04/27 11:10:48;;;;;;;;;;;15.40;84.90;;;;;;5097757;28;20268;-73
2023/04/27 11:13:15;;;;;;;;;;;15.30;84.40;;;;;;5094199;28;20068;-74
2023/04/27 11:15:43;;;;;;;;;;;15.10;84.10;;;;;;5094410;28;20015;-74
2023/04/27 11:18:09;;;;;;;;;;;15.30;80.10;;;;;;5094278;28;19935;-74
2023/04/27 11:20:35;;;;;;;;;;;14.90;81.20;;;;;;5095796;28;19924;-74
2023/04/27 11:23:01;;;;;;;;;;;14.90;82.80;;;;;;5095437;28;20345;-75
2023/04/27 11:25:27;;;;;;;;;;;15.40;84.80;;;;;;5093813;28;19927;-75
2023/04/27 11:27:52;;;;;;;;;;;15.70;81.80;;;;;;5094866;28;19924;-74
2023/04/27 11:30:21;;;;;;;;;;;15.70;81.40;;;;;;5095528;28;19924;-74
2023/04/27 11:32:47;;;;;;;;;;;15.70;82.40;;;;;;5094636;28;20011;-74
2023/04/27 11:35:12;;;;;;;;;;;15.60;82.70;;;;;;5095340;28;19990;-74
2023/04/27 11:37:41;;;;;;;;;;;15.50;81.20;;;;;;5095529;28;19928;-74
2023/04/27 11:40:10;;;;;;;;;;;15.60;82.50;;;;;;5094300;28;19924;-75
2023/04/27 11:42:36;;;;;;;;;;;15.50;82.70;;;;;;5093816;28;19985;-75
2023/04/27 11:45:09;;;;;;;;;;;15.70;80.20;;;;;;5093600;28;19924;-75
2023/04/27 11:47:35;;;;;;;;;;;15.70;80.10;;;;;;5094254;28;19924;-75
2023/04/27 11:50:03;;;;;;;;;;;16.10;84.20;;;;;;5093854;28;19935;-75
2023/04/27 11:52:30;;;;;;;;;;;16.60;83.90;;;;;;5092784;28;19924;-75
2023/04/27 11:54:56;;;;;;;;;;;17.30;82.70;;;;;;5094746;28;19947;-75
2023/04/27 11:57:28;;;;;;;;;;;17.90;77.30;;;;;;5097967;28;20371;-75
2023/04/27 11:59:55;;;;;;;;;;;18.30;76.90;;;;;;5096049;28;19927;-75
2023/04/27 12:02:21;;;;;;;;;;;18.50;79.60;;;;;;5114981;28;19934;-75
2023/04/27 12:04:50;;;;;;;;;;;18.60;79.20;;;;;;5115584;28;19924;-74
2023/04/27 12:07:16;;;;;;;;;;;18.50;78.50;;;;;;5096102;28;20010;-74
2023/04/27 12:09:42;;;;;;;;;;;18.60;77.90;;;;;;5115149;28;20014;-75
2023/04/27 12:12:08;;;;;;;;;;;18.30;77.00;;;;;;5114705;28;19977;-74
2023/04/27 12:14:33;;;;;;;;;;;18.10;78.40;;;;;;5113881;28;20397;-74
2023/04/27 12:16:59;;;;;;;;;;;17.20;76.60;;;;;;5114674;28;20027;-74
2023/04/27 12:19:25;;;;;;;;;;;16.70;78.60;;;;;;5114625;28;19924;-74
2023/04/27 12:21:51;;;;;;;;;;;16.40;77.30;;;;;;5113247;28;19934;-74
2023/04/27 12:24:17;;;;;;;;;;;16.20;80.00;;;;;;5095767;28;19932;-74
2023/04/27 12:26:43;;;;;;;;;;;16.00;81.50;;;;;;5114384;28;19931;-74
2023/04/27 12:29:08;;;;;;;;;;;15.90;82.50;;;;;;5113896;28;19924;-74
2023/04/27 12:31:34;;;;;;;;;;;15.90;81.50;;;;;;5114559;28;19923;-74
2023/04/27 12:34:00;;;;;;;;;;;15.90;80.90;;;;;;5114655;28;19923;-74
2023/04/27 12:36:26;;;;;;;;;;;15.70;80.60;;;;;;5095838;28;20321;-74
2023/04/27 12:38:52;;;;;;;;;;;15.70;82.80;;;;;;5114488;28;20379;-74
2023/04/27 12:41:18;;;;;;;;;;;15.80;81.30;;;;;;5114066;28;20287;-75
2023/04/27 12:43:44;;;;;;;;;;;16.20;83.90;;;;;;5114038;28;19924;-75
2023/04/27 12:46:10;;;;;;;;;;;16.60;81.40;;;;;;5113981;28;19923;-75
2023/04/27 12:48:36;;;;;;;;;;;16.60;81.10;;;;;;5113888;28;19924;-75
2023/04/27 12:51:01;;;;;;;;;;;16.40;81.90;;;;;;5114012;28;20014;-75
2023/04/27 12:53:30;;;;;;;;;;;16.40;82.40;;;;;;5114625;28;19928;-74
2023/04/27 12:55:56;;;;;;;;;;;16.60;84.30;;;;;;5113049;28;19928;-74
2023/04/27 12:58:21;;;;;;;;;;;16.50;83.70;;;;;;5117124;28;19927;-73
2023/04/27 13:00:47;;;;;;;;;;;16.40;82.00;;;;;;5096256;28;20387;-75
2023/04/27 13:03:12;;;;;;;;;;;16.50;82.40;;;;;;5112916;28;19923;-74
2023/04/27 13:05:38;;;;;;;;;;;16.50;81.50;;;;;;5096177;28;19924;-75
2023/04/27 13:08:04;;;;;;;;;;;16.60;81.30;;;;;;5113522;28;20019;-75
2023/04/27 13:10:30;;;;;;;;;;;16.20;80.80;;;;;;5095183;28;19924;-75
2023/04/27 13:12:55;;;;;;;;;;;16.10;85.40;;;;;;5113623;28;19930;-75
2023/04/27 13:15:23;;;;;;;;;;;16.30;84.50;;;;;;5114104;28;19923;-75
2023/04/27 13:17:51;;;;;;;;;;;16.40;84.00;;;;;;5113302;28;20295;-75
2023/04/27 13:20:17;;;;;;;;;;;16.50;83.40;;;;;;5095914;28;19967;-75
2023/04/27 13:22:43;;;;;;;;;;;16.20;82.10;;;;;;5113574;28;19981;-75
2023/04/27 13:25:09;;;;;;;;;;;16.30;83.50;;;;;;5094482;28;19923;-75
2023/04/27 13:27:35;;;;;;;;;;;16.10;84.40;;;;;;5095175;28;19931;-75
2023/04/27 13:30:00;;;;;;;;;;;16.20;84.90;;;;;;5113592;28;19931;-75
2023/04/27 13:32:26;;;;;;;;;;;15.90;84.10;;;;;;5112822;28;20389;-75
2023/04/27 13:34:51;;;;;;;;;;;16.00;83.80;;;;;;5112827;28;20002;-75
2023/04/27 13:37:17;;;;;;;;;;;15.90;83.80;;;;;;5113407;28;19924;-75
2023/04/27 13:39:43;;;;;;;;;;;16.10;84.80;;;;;;5094813;28;19923;-75
2023/04/27 13:42:08;;;;;;;;;;;16.20;81.30;;;;;;5112790;28;20007;-75
2023/04/27 13:44:34;;;;;;;;;;;16.10;81.20;;;;;;5095124;28;19930;-75
2023/04/27 13:46:59;;;;;;;;;;;16.10;79.80;;;;;;5094124;28;19931;-75
2023/04/27 13:49:25;;;;;;;;;;;16.20;84.30;;;;;;5095116;28;20371;-75
2023/04/27 13:51:50;;;;;;;;;;;16.30;82.30;;;;;;5112491;28;19932;-73
2023/04/27 13:54:16;;;;;;;;;;;16.40;84.10;;;;;;5094604;28;19923;-76
2023/04/27 13:56:41;;;;;;;;;;;16.30;83.40;;;;;;5095197;28;19924;-76
2023/04/27 13:59:09;;;;;;;;;;;16.30;82.20;;;;;;5092869;28;19924;-78
2023/04/27 14:01:34;;;;;;;;;;;16.10;78.80;;;;;;5112050;28;20010;-79
2023/04/27 14:04:00;;;;;;;;;;;16.10;80.50;;;;;;5093715;28;20015;-77
2023/04/27 14:06:26;;;;;;;;;;;15.50;82.80;;;;;;5093375;28;20371;-76
2023/04/27 14:08:52;;;;;;;;;;;15.40;82.40;;;;;;5111879;28;20053;-76
2023/04/27 14:11:18;;;;;;;;;;;15.40;82.20;;;;;;5112692;28;19924;-75
2023/04/27 14:13:43;;;;;;;;;;;15.50;85.20;;;;;;5110803;28;19931;-74
2023/04/27 14:16:09;;;;;;;;;;;15.70;84.70;;;;;;5112617;28;19939;-76
2023/04/27 14:18:35;;;;;;;;;;;16.10;83.80;;;;;;5112361;28;19930;-76